Time;durP1;ratioP1;P1;durP2;ratioP2;P2;SDS_P1;SDS_P2;PMS_P1;PMS_P2;Temp;Humidity;BMP_temperature;BMP_pressure;BME280_temperature;BME280_humidity;BME280_pressure;Samples;Min_cycle;Max_cycle;Signal;HPM_P1;HPM_P2
2022/12/16 00:01:29;;;;;;;62.95;22.73;;;;;;;-0.31;100.00;94692.94;5000317;28;20050;-78
2022/12/16 00:03:57;;;;;;;65.70;25.15;;;;;;;-0.28;100.00;94696.91;4995820;28;20046;-78
2022/12/16 00:06:26;;;;;;;60.67;24.20;;;;;;;-0.28;100.00;94697.69;4995478;28;20054;-78
2022/12/16 00:08:53;;;;;;;63.30;23.80;;;;;;;-0.29;100.00;94704.13;4983642;28;20042;-78
2022/12/16 00:11:19;;;;;;;60.92;24.10;;;;;;;-0.24;100.00;94705.16;4991225;28;20481;-78
2022/12/16 00:13:47;;;;;;;60.92;22.63;;;;;;;-0.27;100.00;94703.84;4990650;28;20650;-78
2022/12/16 00:16:15;;;;;;;62.38;23.77;;;;;;;-0.36;100.00;94700.25;4987116;28;20056;-76
2022/12/16 00:18:43;;;;;;;65.63;23.92;;;;;;;-0.33;100.00;94705.78;4987661;28;20057;-76
2022/12/16 00:21:10;;;;;;;62.22;23.08;;;;;;;-0.28;100.00;94707.59;4990592;28;20042;-76
2022/12/16 00:23:38;;;;;;;60.15;22.75;;;;;;;-0.30;100.00;94699.88;4989910;28;20042;-76
2022/12/16 00:26:04;;;;;;;60.70;22.77;;;;;;;-0.29;100.00;94706.81;4991086;28;20046;-76
2022/12/16 00:28:31;;;;;;;63.83;23.90;;;;;;;-0.24;100.00;94707.81;4991141;28;20046;-77
2022/12/16 00:30:58;;;;;;;63.78;25.17;;;;;;;-0.22;100.00;94711.00;4991646;28;20046;-75
2022/12/16 00:33:26;;;;;;;59.50;23.40;;;;;;;-0.23;100.00;94709.41;4990619;28;20405;-76
2022/12/16 00:35:55;;;;;;;59.90;22.85;;;;;;;-0.23;100.00;94714.75;4991308;28;20065;-76
2022/12/16 00:38:23;;;;;;;61.70;23.30;;;;;;;-0.28;100.00;94703.03;4990523;28;20508;-75
2022/12/16 00:40:50;;;;;;;66.75;24.83;;;;;;;-0.29;100.00;94714.03;4990728;28;20505;-76
2022/12/16 00:43:16;;;;;;;62.47;23.40;;;;;;;-0.30;100.00;94713.25;4990968;28;20039;-76
2022/12/16 00:45:45;;;;;;;59.63;23.33;;;;;;;-0.25;100.00;94716.94;4990750;28;20054;-75
2022/12/16 00:48:11;;;;;;;73.60;25.65;;;;;;;-0.28;100.00;94716.41;4990728;28;20064;-75
2022/12/16 00:50:38;;;;;;;59.40;24.45;;;;;;;-0.24;100.00;94721.19;4990585;28;20051;-75
2022/12/16 00:53:06;;;;;;;62.78;23.70;;;;;;;-0.23;100.00;94726.25;4990461;28;20490;-76
2022/12/16 00:55:33;;;;;;;70.15;27.27;;;;;;;-0.28;100.00;94724.44;4990579;28;20061;-77
2022/12/16 00:57:59;;;;;;;84.82;33.85;;;;;;;-0.27;100.00;94726.03;4991074;28;20486;-77
2022/12/16 01:00:26;;;;;;;97.20;36.53;;;;;;;-0.31;100.00;94735.72;4991335;28;20057;-75
2022/12/16 01:02:53;;;;;;;84.53;34.75;;;;;;;-0.27;100.00;94736.72;4990789;28;20046;-76
2022/12/16 01:05:25;;;;;;;90.15;35.53;;;;;;;-0.29;100.00;94732.75;4990517;28;20046;-76
2022/12/16 01:07:52;;;;;;;97.43;36.65;;;;;;;-0.30;100.00;94734.63;4990708;28;20049;-75
2022/12/16 01:10:20;;;;;;;87.75;35.72;;;;;;;-0.28;100.00;94740.50;4990497;28;20592;-76
2022/12/16 01:12:47;;;;;;;98.35;37.30;;;;;;;-0.32;100.00;94744.81;4990519;28;20055;-76
2022/12/16 01:15:13;;;;;;;86.53;36.83;;;;;;;-0.29;100.00;94743.47;4990535;28;20045;-77
2022/12/16 01:17:41;;;;;;;93.68;37.30;;;;;;;-0.33;100.00;94742.44;4990537;28;20077;-76
2022/12/16 01:20:09;;;;;;;94.57;37.45;;;;;;;-0.38;100.00;94745.97;4990428;28;20659;-76
2022/12/16 01:22:36;;;;;;;92.07;36.08;;;;;;;-0.33;100.00;94755.81;4990372;28;20053;-76
2022/12/16 01:25:03;;;;;;;91.40;36.15;;;;;;;-0.33;100.00;94759.28;4990453;28;20310;-75
2022/12/16 01:27:31;;;;;;;98.85;38.83;;;;;;;-0.39;100.00;94754.28;4991474;28;20046;-75
2022/12/16 01:29:58;;;;;;;93.57;37.20;;;;;;;-0.36;100.00;94759.06;4994450;28;20651;-76
2022/12/16 01:32:27;;;;;;;88.15;35.08;;;;;;;-0.34;100.00;94752.34;4993958;28;20077;-77
2022/12/16 01:34:54;;;;;;;96.45;37.28;;;;;;;-0.46;100.00;94762.69;4986145;28;20042;-77
2022/12/16 01:37:21;;;;;;;96.28;38.60;;;;;;;-0.46;100.00;94765.34;4994200;28;20042;-75
2022/12/16 01:39:47;;;;;;;94.35;36.10;;;;;;;-0.39;100.00;94762.31;4994007;28;20050;-75
2022/12/16 01:42:16;;;;;;;105.15;38.72;;;;;;;-0.45;100.00;94756.25;4994041;28;20042;-76
2022/12/16 01:44:46;;;;;;;86.00;36.88;;;;;;;-0.39;100.00;94759.63;4994034;28;20065;-75
2022/12/16 01:47:16;;;;;;;91.10;36.38;;;;;;;-0.45;100.00;94761.59;4993716;28;20054;-76
2022/12/16 01:49:46;;;;;;;88.00;36.13;;;;;;;-0.40;100.00;94758.84;4994379;28;20047;-75
2022/12/16 01:52:18;;;;;;;83.63;33.92;;;;;;;-0.38;100.00;94767.38;4994327;28;20057;-75
2022/12/16 01:54:49;;;;;;;80.20;33.03;;;;;;;-0.37;100.00;94768.94;4994073;28;20047;-75
2022/12/16 01:57:22;;;;;;;78.32;32.63;;;;;;;-0.35;100.00;94774.81;4994116;28;20048;-75
2022/12/16 01:59:53;;;;;;;90.70;36.20;;;;;;;-0.39;100.00;94775.69;4993987;28;20042;-76
2022/12/16 02:02:20;;;;;;;80.80;32.85;;;;;;;-0.39;100.00;94770.34;4993951;28;20289;-76
2022/12/16 02:07:27;;;;;;;86.13;33.50;;;;;;;-0.41;100.00;94772.50;4995272;28;20042;-76
2022/12/16 02:09:55;;;;;;;91.53;35.60;;;;;;;-0.45;100.00;94774.16;4993822;28;20068;-75
2022/12/16 02:12:29;;;;;;;86.40;34.15;;;;;;;-0.48;100.00;94772.84;4993399;28;20042;-74
2022/12/16 02:15:04;;;;;;;;;;;;;;;-0.48;100.00;94777.41;4986316;28;20042;-76
2022/12/16 02:17:40;;;;;;;80.70;35.15;;;;;;;-0.66;100.00;94770.94;4993211;28;19922;-75
2022/12/16 02:20:20;;;;;;;91.05;35.88;;;;;;;-0.55;100.00;94778.56;4993787;28;20038;-75
2022/12/16 02:23:03;;;;;;;86.35;34.15;;;;;;;-0.52;100.00;94779.88;4993016;28;20483;-76
2022/12/16 02:25:53;;;;;;;95.80;36.30;;;;;;;-0.51;100.00;94784.13;4992930;28;20181;-77
2022/12/16 02:28:36;;;;;;;95.03;37.45;;;;;;;-0.64;100.00;94780.25;4992935;28;20069;-78
2022/12/16 02:31:19;;;;;;;90.43;37.55;;;;;;;-0.75;100.00;94778.00;4989714;28;20052;-76
2022/12/16 02:34:06;;;;;;;96.05;37.58;;;;;;;-0.66;100.00;94770.94;4994005;28;20050;-78
2022/12/16 02:36:44;;;;;;;98.13;38.00;;;;;;;-0.65;100.00;94784.00;4994274;28;20057;-77
2022/12/16 02:39:15;;;;;;;85.22;36.00;;;;;;;-0.56;100.00;94792.22;4992098;28;20043;-76
2022/12/16 02:41:46;;;;;;;95.65;37.33;;;;;;;-0.68;100.00;94792.63;4992742;28;20101;-78
2022/12/16 02:44:14;;;;;;;83.43;35.22;;;;;;;-0.62;100.00;94794.16;4992911;28;20042;-76
2022/12/16 02:46:43;;;;;;;85.80;36.08;;;;;;;-0.64;100.00;94798.19;4992417;28;20058;-76
2022/12/16 02:49:50;;;;;;;84.32;34.67;;;;;;;-0.62;100.00;94809.41;4993171;28;20046;-77
2022/12/16 02:52:20;;;;;;;78.97;32.67;;;;;;;-0.56;100.00;94814.41;4987640;28;20046;-77
2022/12/16 02:54:49;;;;;;;77.90;33.20;;;;;;;-0.56;100.00;94810.94;4993422;28;20057;-78
2022/12/16 02:57:40;;;;;;;74.38;32.05;;;;;;;-0.68;100.00;94821.22;4992719;28;20544;-78
2022/12/16 03:00:11;;;;;;;79.05;32.58;;;;;;;-0.71;100.00;94824.47;4992838;28;20038;-77
2022/12/16 03:02:47;;;;;;;75.57;33.15;;;;;;;-0.64;100.00;94827.59;4992374;28;20482;-77
2022/12/16 03:05:20;;;;;;;76.32;32.83;;;;;;;-0.64;100.00;94828.38;4992711;28;20050;-78
2022/12/16 03:07:49;;;;;;;76.15;32.15;;;;;;;-0.58;100.00;94831.78;4992648;28;20046;-78
2022/12/16 03:10:19;;;;;;;70.93;31.10;;;;;;;-0.61;100.00;94832.38;4992692;28;20042;-77
2022/12/16 03:12:46;;;;;;;78.57;32.88;;;;;;;-0.64;100.00;94832.94;4993452;28;20084;-79
2022/12/16 03:15:16;;;;;;;73.03;31.50;;;;;;;-0.68;100.00;94826.56;4992051;28;20415;-78
2022/12/16 03:17:48;;;;;;;74.90;31.80;;;;;;;-0.61;100.00;94832.38;5000535;28;20046;-79
2022/12/16 03:20:19;;;;;;;73.03;30.95;;;;;;;-0.60;100.00;94823.25;4992436;28;20053;-77
2022/12/16 03:22:50;;;;;;;75.15;31.90;;;;;;;-0.67;100.00;94836.19;4992018;28;20051;-77
2022/12/16 03:25:18;;;;;;;69.97;30.42;;;;;;;-0.63;100.00;94835.31;4992195;28;20049;-77
2022/12/16 03:27:50;;;;;;;63.58;28.92;;;;;;;-0.59;100.00;94836.34;4991960;28;20050;-74
2022/12/16 03:30:22;;;;;;;69.97;29.58;;;;;;;-0.60;100.00;94844.66;4992703;28;20407;-75
2022/12/16 03:32:58;;;;;;;74.22;31.48;;;;;;;-0.67;100.00;94846.88;4992099;28;20046;-75
2022/12/16 03:35:28;;;;;;;76.25;32.85;;;;;;;-0.72;100.00;94845.06;4992164;28;20038;-75
2022/12/16 03:37:58;;;;;;;74.80;33.08;;;;;;;-0.71;100.00;94838.63;4984792;28;20039;-76
2022/12/16 03:40:28;;;;;;;71.80;31.63;;;;;;;-0.73;100.00;94846.13;4993303;28;20065;-75
2022/12/16 03:42:56;;;;;;;69.63;30.30;;;;;;;-0.74;100.00;94843.72;4994381;28;20043;-80
2022/12/16 03:45:26;;;;;;;72.13;30.42;;;;;;;-0.72;100.00;94846.94;4992968;28;20162;-78
2022/12/16 03:47:57;;;;;;;75.63;31.63;;;;;;;-0.95;100.00;94843.94;4986040;28;20517;-79
2022/12/16 03:50:28;;;;;;;71.57;30.80;;;;;;;-0.96;100.00;94837.00;4994656;28;20049;-77
2022/12/16 03:52:55;;;;;;;69.15;29.52;;;;;;;-0.89;100.00;94837.47;4994040;28;20101;-77
2022/12/16 03:55:21;;;;;;;67.47;29.65;;;;;;;-0.90;100.00;94835.88;4995528;28;20073;-79
2022/12/16 03:57:48;;;;;;;68.45;29.65;;;;;;;-0.90;100.00;94843.09;4994306;28;20058;-76
2022/12/16 04:00:14;;;;;;;73.07;32.08;;;;;;;-0.93;100.00;94849.81;4993953;28;20042;-76
2022/12/16 04:02:41;;;;;;;70.60;30.60;;;;;;;-0.84;100.00;94855.31;4994108;28;20054;-76
2022/12/16 04:05:10;;;;;;;64.30;28.95;;;;;;;-0.89;100.00;94853.50;4993035;28;20042;-76
2022/12/16 04:07:37;;;;;;;69.03;29.92;;;;;;;-0.90;100.00;94845.75;4994594;28;20042;-76
2022/12/16 04:10:04;;;;;;;67.07;28.88;;;;;;;-0.94;100.00;94856.22;4994881;28;20404;-77
2022/12/16 04:26:17;;;;;;;68.25;29.83;;;;;;;-0.99;100.00;94883.00;4999680;28;20139;-77
2022/12/16 04:28:44;;;;;;;71.00;30.65;;;;;;;-0.99;100.00;94880.31;4999628;28;20105;-78
2022/12/16 04:31:11;;;;;;;67.38;30.58;;;;;;;-0.97;100.00;94883.50;5007188;28;20049;-79
